Time;durP1;ratioP1;P1;durP2;ratioP2;P2;SDS_P1;SDS_P2;PMS_P1;PMS_P2;Temp;Humidity;BMP_temperature;BMP_pressure;BME280_temperature;BME280_humidity;BME280_pressure;Samples;Min_cycle;Max_cycle;Signal;HPM_P1;HPM_P2
2022/02/11 00:07:10;;;;;;;1.10;1.00;;;7.50;85.40;;;;;;5043906;28;20527;-49
2022/02/11 00:09:39;;;;;;;0.90;0.90;;;7.50;85.30;;;;;;5044905;28;20485;-49
2022/02/11 00:12:07;;;;;;;0.73;0.70;;;7.50;84.90;;;;;;5043802;28;20509;-49
2022/02/11 00:14:42;;;;;;;0.97;0.60;;;7.40;84.70;;;;;;5013248;28;20459;-49
2022/02/11 00:17:10;;;;;;;0.80;0.80;;;7.40;84.60;;;;;;5047763;28;20458;-49
2022/02/11 00:19:39;;;;;;;0.60;0.53;;;7.30;85.00;;;;;;5043703;28;20467;-49
2022/02/11 00:22:06;;;;;;;1.60;0.57;;;7.30;85.00;;;;;;5028838;28;20473;-49
2022/02/11 00:24:33;;;;;;;0.80;0.53;;;7.20;85.20;;;;;;5044733;28;20462;-49
2022/02/11 00:32:29;;;;;;;0.50;0.50;;;7.10;82.60;;;;;;5029827;28;20493;-49
2022/02/11 00:35:05;;;;;;;1.40;0.30;;;7.00;82.00;;;;;;5044135;28;20479;-49
2022/02/11 00:37:37;;;;;;;0.73;0.60;;;7.00;82.70;;;;;;5031964;28;20526;-49
2022/02/11 00:40:14;;;;;;;0.40;0.40;;;6.90;82.70;;;;;;5049081;28;20476;-49
2022/02/11 01:04:07;;;;;;;0.40;0.40;;;6.50;80.40;;;;;;5046265;28;20466;-50
2022/02/11 01:06:33;;;;;;;0.80;0.80;;;6.40;81.40;;;;;;5034060;28;20527;-49
2022/02/11 01:09:00;;;;;;;0.50;0.40;;;6.40;81.30;;;;;;5031208;28;20495;-49
2022/02/11 01:11:29;;;;;;;0.83;0.43;;;6.30;81.60;;;;;;5049455;28;20484;-50
2022/02/11 01:13:56;;;;;;;0.30;0.30;;;6.30;80.90;;;;;;5034821;28;20590;-50
2022/02/11 01:16:40;;;;;;;0.50;0.50;;;6.30;80.40;;;;;;5049206;28;20461;-49
2022/02/11 01:19:31;;;;;;;0.60;0.53;;;6.20;80.70;;;;;;5048064;28;20547;-50
2022/02/11 01:30:14;;;;;;;0.40;0.37;;;6.20;80.60;;;;;;5049734;28;20455;-50
2022/02/11 01:54:01;;;;;;;0.40;0.30;;;6.20;80.80;;;;;;5043833;28;20459;-49
2022/02/11 02:24:14;;;;;;;0.60;0.30;;;6.00;81.10;;;;;;5043550;28;20542;-49
2022/02/11 02:32:24;;;;;;;0.57;0.57;;;6.00;80.20;;;;;;5045782;28;20514;-49
2022/02/11 02:34:55;;;;;;;0.70;0.70;;;5.90;80.80;;;;;;5044122;28;20435;-50
2022/02/11 02:37:43;;;;;;;0.60;0.60;;;5.90;80.20;;;;;;5048239;28;20488;-50
2022/02/11 02:56:52;;;;;;;0.67;0.67;;;5.70;80.90;;;;;;5049958;28;20462;-50
2022/02/11 03:35:36;;;;;;;1.17;0.90;;;5.50;80.60;;;;;;5046652;28;20451;-50
2022/02/11 03:49:17;;;;;;;1.40;0.93;;;5.40;80.70;;;;;;5044450;28;20547;-51
2022/02/11 05:00:33;;;;;;;5.40;2.10;;;4.70;82.20;;;;;;4966051;28;20883;-49
2022/02/11 05:03:00;;;;;;;2.20;2.00;;;4.70;82.40;;;;;;4946317;28;20469;-50
2022/02/11 05:05:27;;;;;;;2.50;2.20;;;4.70;82.60;;;;;;4986620;28;20491;-49
2022/02/11 05:07:54;;;;;;;2.00;1.70;;;4.70;82.70;;;;;;5026233;28;20825;-49
2022/02/11 05:10:21;;;;;;;2.70;2.03;;;4.60;82.70;;;;;;5044938;28;20837;-50
2022/02/11 05:12:48;;;;;;;2.10;1.90;;;4.60;82.70;;;;;;5046772;28;20486;-50
2022/02/11 05:15:15;;;;;;;3.00;2.17;;;4.60;82.70;;;;;;5036452;28;20470;-50
2022/02/11 05:17:50;;;;;;;3.00;2.70;;;4.60;82.30;;;;;;5043152;28;20458;-49
2022/02/11 05:20:18;;;;;;;5.07;2.80;;;4.60;82.20;;;;;;5040852;28;20455;-49
2022/02/11 05:22:45;;;;;;;2.50;2.30;;;4.50;82.20;;;;;;5031184;28;20467;-48
2022/02/11 05:25:12;;;;;;;2.53;2.30;;;4.50;82.20;;;;;;5039817;28;20470;-50
2022/02/11 05:27:38;;;;;;;2.87;2.63;;;4.50;82.20;;;;;;5024403;28;20462;-49
2022/02/11 05:30:07;;;;;;;2.60;2.17;;;4.50;82.30;;;;;;5044538;28;20460;-50
2022/02/11 05:32:34;;;;;;;2.47;2.33;;;4.50;82.10;;;;;;5046023;28;20559;-50
2022/02/11 05:35:01;;;;;;;2.83;2.10;;;4.50;82.30;;;;;;5029938;28;20451;-50
2022/02/11 05:37:27;;;;;;;4.03;2.60;;;4.60;82.00;;;;;;5024085;28;20467;-49
2022/02/11 05:39:54;;;;;;;2.57;2.37;;;4.50;81.40;;;;;;5043543;28;20466;-50
2022/02/11 05:42:21;;;;;;;4.23;2.80;;;4.50;81.70;;;;;;5042542;28;20937;-50
2022/02/11 05:44:48;;;;;;;5.33;2.70;;;4.50;81.20;;;;;;5047945;28;20539;-49
2022/02/11 05:47:14;;;;;;;2.40;2.17;;;4.50;81.50;;;;;;5046251;28;20493;-50
2022/02/11 05:49:41;;;;;;;3.00;2.40;;;4.50;81.20;;;;;;5043579;28;20832;-48
2022/02/11 05:52:08;;;;;;;3.63;2.40;;;4.50;81.20;;;;;;5034133;28;20486;-46
2022/02/11 05:54:35;;;;;;;6.03;3.20;;;4.50;81.20;;;;;;5022917;28;20467;-46
2022/02/11 05:57:02;;;;;;;3.70;3.17;;;4.50;81.30;;;;;;5022918;28;20462;-47
2022/02/11 05:59:28;;;;;;;4.30;2.80;;;4.50;81.40;;;;;;5007286;28;20462;-47
2022/02/11 06:01:55;;;;;;;5.80;3.60;;;4.50;81.40;;;;;;5026414;28;20944;-46
2022/02/11 06:04:24;;;;;;;5.57;3.30;;;4.50;81.30;;;;;;5010047;28;20460;-47
2022/02/11 06:06:52;;;;;;;5.17;3.23;;;4.50;81.10;;;;;;5025742;28;20456;-47
2022/02/11 06:09:20;;;;;;;3.20;2.30;;;4.50;81.10;;;;;;5023084;28;20466;-47
2022/02/11 06:11:48;;;;;;;7.67;3.07;;;4.50;80.80;;;;;;5021514;28;20459;-45
2022/02/11 06:14:16;;;;;;;5.50;3.40;;;4.50;80.20;;;;;;5004408;28;21054;-46
2022/02/11 06:16:44;;;;;;;8.33;3.40;;;4.50;80.10;;;;;;5023308;28;20463;-47
2022/02/11 06:19:11;;;;;;;4.50;3.17;;;4.50;80.50;;;;;;5024450;28;20975;-47
2022/02/11 06:21:38;;;;;;;7.43;3.90;;;4.50;80.60;;;;;;5019724;28;20961;-46
2022/02/11 06:24:05;;;;;;;10.00;3.53;;;4.50;80.10;;;;;;4996281;28;20470;-47
2022/02/11 06:26:33;;;;;;;4.30;3.40;;;4.50;80.30;;;;;;5009646;28;20887;-47
2022/02/11 06:29:00;;;;;;;4.70;3.80;;;4.50;79.50;;;;;;5004566;28;20458;-46
2022/02/11 06:31:27;;;;;;;8.73;3.20;;;4.50;79.30;;;;;;5024702;28;20464;-47
2022/02/11 06:33:54;;;;;;;7.00;3.60;;;4.50;78.70;;;;;;5024174;28;20594;-47
2022/02/11 06:36:21;;;;;;;5.30;3.83;;;4.50;79.10;;;;;;5009481;28;20460;-47
2022/02/11 06:38:48;;;;;;;6.40;4.90;;;4.40;78.90;;;;;;5026144;28;20843;-47
2022/02/11 06:41:15;;;;;;;5.40;3.70;;;4.40;78.70;;;;;;5025552;28;20473;-47
2022/02/11 06:43:42;;;;;;;8.70;3.50;;;4.40;79.40;;;;;;5025350;28;20590;-47
2022/02/11 06:46:09;;;;;;;4.80;3.40;;;4.50;79.20;;;;;;5021153;28;20479;-46
2022/02/11 06:48:36;;;;;;;5.80;3.40;;;4.50;79.30;;;;;;5026397;28;21261;-47
2022/02/11 06:51:03;;;;;;;5.70;3.23;;;4.50;79.40;;;;;;5012944;28;20455;-47
2022/02/11 06:53:32;;;;;;;8.43;3.57;;;4.50;79.40;;;;;;5022575;28;20495;-46
2022/02/11 06:55:59;;;;;;;6.40;4.03;;;4.50;79.80;;;;;;5006247;28;20456;-47
2022/02/11 06:58:26;;;;;;;8.93;3.63;;;4.50;79.40;;;;;;5025404;28;20490;-47
2022/02/11 07:00:53;;;;;;;4.83;3.10;;;4.50;78.90;;;;;;5022315;28;20464;-47
2022/02/11 07:03:20;;;;;;;7.30;3.40;;;4.60;78.80;;;;;;5010905;28;20489;-47
2022/02/11 07:05:47;;;;;;;4.50;3.10;;;4.60;78.30;;;;;;5006062;28;20819;-47
2022/02/11 07:08:13;;;;;;;3.80;2.70;;;4.60;78.40;;;;;;5008320;28;20461;-46
2022/02/11 07:10:40;;;;;;;5.10;3.13;;;4.60;78.00;;;;;;5024000;28;20467;-46
2022/02/11 07:13:13;;;;;;;4.40;3.30;;;4.60;77.80;;;;;;5024089;28;21171;-46
2022/02/11 07:15:41;;;;;;;5.60;3.90;;;4.60;78.10;;;;;;5023746;28;20455;-46
2022/02/11 07:18:09;;;;;;;6.80;3.30;;;4.60;77.50;;;;;;5023429;28;21234;-46
2022/02/11 07:20:36;;;;;;;4.77;3.47;;;4.60;78.30;;;;;;5010109;28;20444;-48
2022/02/11 07:23:04;;;;;;;3.57;2.97;;;4.60;78.00;;;;;;5028641;28;20506;-47
2022/02/11 07:25:32;;;;;;;7.20;3.20;;;4.70;77.90;;;;;;5029040;28;20538;-46
2022/02/11 07:27:59;;;;;;;5.63;2.90;;;4.70;78.20;;;;;;5028776;28;20470;-46
2022/02/11 07:30:29;;;;;;;5.47;3.30;;;4.70;77.70;;;;;;5027105;28;20959;-47
2022/02/11 07:32:56;;;;;;;8.33;2.80;;;4.70;77.80;;;;;;5026056;28;20479;-46
2022/02/11 07:35:24;;;;;;;9.20;3.93;;;4.70;78.00;;;;;;5029570;28;20448;-46
2022/02/11 07:37:51;;;;;;;6.20;3.13;;;4.70;78.30;;;;;;5027452;28;20463;-46
2022/02/11 07:40:18;;;;;;;7.63;3.67;;;4.70;78.40;;;;;;5029708;28;20983;-46
2022/02/11 07:42:47;;;;;;;6.30;3.73;;;4.80;77.90;;;;;;5007497;28;20467;-46
2022/02/11 07:45:16;;;;;;;7.70;2.50;;;4.80;78.50;;;;;;5027318;28;20459;-46
2022/02/11 07:47:43;;;;;;;3.60;3.30;;;4.80;78.40;;;;;;5014766;28;20928;-46
2022/02/11 07:50:11;;;;;;;4.37;3.23;;;4.80;78.10;;;;;;5029308;28;20454;-47
2022/02/11 07:52:37;;;;;;;7.20;3.50;;;4.80;78.50;;;;;;5028663;28;20462;-47
2022/02/11 07:55:05;;;;;;;4.03;2.73;;;4.90;78.10;;;;;;5026276;28;20460;-47
2022/02/11 07:57:32;;;;;;;8.60;3.87;;;4.90;78.50;;;;;;5027573;28;21034;-47
2022/02/11 08:00:04;;;;;;;3.77;3.10;;;5.00;78.40;;;;;;5029376;28;20463;-46
2022/02/11 08:02:37;;;;;;;4.80;2.80;;;5.00;78.20;;;;;;5026215;28;21010;-46
2022/02/11 08:05:04;;;;;;;5.27;3.07;;;5.10;78.00;;;;;;5027260;28;20471;-47
2022/02/11 08:07:31;;;;;;;8.50;3.83;;;5.10;77.90;;;;;;5025418;28;20509;-47
2022/02/11 08:09:58;;;;;;;3.50;2.97;;;5.20;77.80;;;;;;5028937;28;20894;-46
2022/02/11 08:12:25;;;;;;;5.20;3.37;;;5.20;78.10;;;;;;5030469;28;20538;-46
2022/02/11 08:14:51;;;;;;;3.87;2.60;;;5.30;78.00;;;;;;5029688;28;20487;-47
2022/02/11 08:17:23;;;;;;;4.53;3.53;;;5.30;78.40;;;;;;5027220;28;20460;-47
2022/02/11 08:19:50;;;;;;;3.20;2.77;;;5.30;77.70;;;;;;5027934;28;20474;-46
2022/02/11 08:22:17;;;;;;;3.63;2.80;;;5.30;77.90;;;;;;5025883;28;20843;-46
2022/02/11 08:24:43;;;;;;;4.70;2.80;;;5.20;77.70;;;;;;5027923;28;20483;-46
2022/02/11 08:27:13;;;;;;;8.80;3.63;;;5.20;78.00;;;;;;5026302;28;20830;-47
2022/02/11 08:29:42;;;;;;;8.33;3.00;;;5.30;77.60;;;;;;5027245;28;20485;-46
2022/02/11 08:32:09;;;;;;;5.73;2.80;;;5.30;78.40;;;;;;5008392;28;20476;-47
2022/02/11 08:34:39;;;;;;;4.17;2.63;;;5.40;78.40;;;;;;5027473;28;20514;-47
2022/02/11 08:37:06;;;;;;;3.63;3.30;;;5.40;78.00;;;;;;5017058;28;20893;-46
2022/02/11 08:39:38;;;;;;;12.37;3.43;;;5.50;78.00;;;;;;5029161;28;20952;-47
2022/02/11 08:42:06;;;;;;;4.63;3.47;;;5.50;78.30;;;;;;5028939;28;21003;-46
2022/02/11 08:44:34;;;;;;;5.33;3.60;;;5.50;78.70;;;;;;5024095;28;20521;-47
2022/02/11 08:47:01;;;;;;;6.03;3.50;;;5.60;78.30;;;;;;5026450;28;20482;-46
2022/02/11 08:49:29;;;;;;;5.90;3.60;;;5.60;78.70;;;;;;5028327;28;20456;-47
2022/02/11 08:51:56;;;;;;;4.40;3.07;;;5.70;79.20;;;;;;5025046;28;20586;-47
2022/02/11 08:54:24;;;;;;;3.20;2.90;;;5.70;78.30;;;;;;5010618;28;21022;-47
2022/02/11 08:56:50;;;;;;;5.93;3.30;;;5.70;77.60;;;;;;5027747;28;20460;-47
2022/02/11 08:59:17;;;;;;;8.73;3.20;;;5.70;77.60;;;;;;5008570;28;20470;-46
2022/02/11 09:01:44;;;;;;;5.07;2.90;;;5.70;77.60;;;;;;5024793;28;20546;-47
2022/02/11 09:04:11;;;;;;;4.50;3.00;;;5.80;77.90;;;;;;5024559;28;21013;-47
2022/02/11 09:06:37;;;;;;;3.40;3.00;;;5.80;78.10;;;;;;5025694;28;21230;-47
2022/02/11 09:09:04;;;;;;;7.03;2.50;;;5.90;77.60;;;;;;5023257;28;20537;-45
2022/02/11 09:11:32;;;;;;;10.10;3.77;;;5.90;77.20;;;;;;5025756;28;20471;-48
2022/02/11 09:14:00;;;;;;;4.63;3.50;;;5.90;77.20;;;;;;5024508;28;20867;-47
2022/02/11 09:16:28;;;;;;;3.43;2.87;;;6.00;76.90;;;;;;5027661;28;20466;-47
2022/02/11 09:18:54;;;;;;;5.70;3.57;;;6.00;77.00;;;;;;5024368;28;20956;-47
2022/02/11 09:21:21;;;;;;;4.90;3.13;;;6.10;76.70;;;;;;5026015;28;20444;-46
2022/02/11 09:23:48;;;;;;;6.90;2.97;;;6.10;77.00;;;;;;5009564;28;20459;-47
2022/02/11 09:26:16;;;;;;;4.90;2.40;;;6.20;77.40;;;;;;5012019;28;20451;-47
2022/02/11 09:28:43;;;;;;;3.37;2.70;;;6.30;76.50;;;;;;5025240;28;20828;-47
2022/02/11 09:31:11;;;;;;;5.93;2.77;;;6.30;76.50;;;;;;5027157;28;20952;-47
2022/02/11 09:33:38;;;;;;;4.63;3.07;;;6.40;76.80;;;;;;5027320;28;20483;-47
2022/02/11 09:36:07;;;;;;;9.00;2.67;;;6.50;75.90;;;;;;5024310;28;20839;-46
2022/02/11 09:38:34;;;;;;;4.40;2.23;;;6.60;75.30;;;;;;5023330;28;20471;-46
2022/02/11 09:41:01;;;;;;;3.07;2.50;;;6.70;74.70;;;;;;5021982;28;20475;-46
2022/02/11 09:43:28;;;;;;;5.13;2.60;;;6.80;74.20;;;;;;5021131;28;20464;-46
2022/02/11 09:45:55;;;;;;;3.83;2.70;;;6.90;74.10;;;;;;5022652;28;20459;-46
2022/02/11 09:48:24;;;;;;;5.57;2.57;;;6.90;74.10;;;;;;5022119;28;20490;-46
2022/02/11 09:50:53;;;;;;;4.90;2.73;;;7.00;73.60;;;;;;5027008;28;20447;-46
2022/02/11 09:53:26;;;;;;;8.70;2.87;;;7.20;74.20;;;;;;5024941;28;20998;-46
2022/02/11 09:55:53;;;;;;;5.33;2.47;;;7.30;72.90;;;;;;5026126;28;20474;-46
2022/02/11 09:58:20;;;;;;;6.60;2.40;;;7.40;72.80;;;;;;5022822;28;20551;-45
2022/02/11 10:00:49;;;;;;;7.93;2.37;;;7.50;71.00;;;;;;5025272;28;20853;-46
2022/02/11 10:03:23;;;;;;;3.90;2.30;;;7.60;72.20;;;;;;5008377;28;20498;-45
2022/02/11 10:05:56;;;;;;;2.17;1.97;;;7.70;72.50;;;;;;5024516;28;20790;-46
2022/02/11 10:08:24;;;;;;;5.13;1.90;;;7.80;70.90;;;;;;5026380;28;20551;-46
2022/02/11 10:10:54;;;;;;;6.00;2.17;;;7.90;69.90;;;;;;5024527;28;20498;-46
2022/02/11 10:13:24;;;;;;;5.87;1.90;;;7.90;69.60;;;;;;5026269;28;20864;-46
2022/02/11 10:15:56;;;;;;;2.93;1.60;;;7.90;69.10;;;;;;5025378;28;20451;-46
2022/02/11 10:18:29;;;;;;;2.80;2.03;;;7.90;69.60;;;;;;4999164;28;20878;-46
2022/02/11 10:21:00;;;;;;;7.20;2.70;;;7.90;70.40;;;;;;5024288;28;20948;-45
2022/02/11 10:23:32;;;;;;;2.00;1.70;;;7.80;72.40;;;;;;5017128;28;20459;-46
2022/02/11 10:26:27;;;;;;;3.20;2.40;;;7.70;72.30;;;;;;5007597;28;20515;-46
2022/02/11 10:28:59;;;;;;;10.93;2.43;;;7.70;72.90;;;;;;5019223;28;20919;-46
2022/02/11 10:31:29;;;;;;;9.47;2.53;;;7.50;72.50;;;;;;5011422;28;20458;-46
2022/02/11 10:34:02;;;;;;;3.27;1.60;;;7.40;73.70;;;;;;5027944;28;20519;-46
2022/02/11 10:36:32;;;;;;;3.03;1.53;;;7.30;75.00;;;;;;5027677;28;20479;-47
2022/02/11 10:39:17;;;;;;;3.70;1.30;;;7.10;75.20;;;;;;5012811;28;20491;-46
2022/02/11 10:41:53;;;;;;;7.30;1.80;;;6.90;75.20;;;;;;5009973;28;20866;-45
2022/02/11 10:44:26;;;;;;;3.30;1.20;;;6.70;75.90;;;;;;5013205;28;20534;-46
2022/02/11 10:47:00;;;;;;;2.83;1.40;;;6.60;76.60;;;;;;5026354;28;21007;-46
2022/02/11 10:49:38;;;;;;;3.70;0.93;;;6.50;76.90;;;;;;5026257;28;20455;-46
2022/02/11 10:52:18;;;;;;;0.97;0.93;;;6.30;77.90;;;;;;5025942;28;20448;-47
2022/02/11 10:54:54;;;;;;;4.20;1.57;;;6.20;78.80;;;;;;5022802;28;20837;-46
2022/02/11 10:57:28;;;;;;;3.37;1.10;;;6.10;79.70;;;;;;5009997;28;21110;-46
2022/02/11 10:59:55;;;;;;;2.53;0.70;;;6.10;79.90;;;;;;5023258;28;20983;-46
2022/02/11 11:02:24;;;;;;;3.77;0.73;;;6.00;78.50;;;;;;5027200;28;20478;-46
2022/02/11 11:04:55;;;;;;;2.13;1.00;;;6.00;78.80;;;;;;5007926;28;20950;-46
2022/02/11 11:07:24;;;;;;;0.90;0.60;;;6.00;78.90;;;;;;5025802;28;21005;-46
2022/02/11 11:10:12;;;;;;;1.03;0.70;;;6.00;78.20;;;;;;5016052;28;20444;-46
2022/02/11 11:12:53;;;;;;;1.40;0.93;;;5.90;78.30;;;;;;5030161;28;20898;-46
2022/02/11 11:15:22;;;;;;;1.50;0.70;;;5.90;78.40;;;;;;5012457;28;20581;-46
2022/02/11 11:17:51;;;;;;;1.47;0.80;;;6.00;79.10;;;;;;5026506;28;20470;-46
2022/02/11 11:20:21;;;;;;;1.53;0.80;;;6.10;78.90;;;;;;5010964;28;20483;-46
2022/02/11 11:22:53;;;;;;;4.60;1.03;;;6.30;79.30;;;;;;5028046;28;20451;-46
2022/02/11 11:25:20;;;;;;;2.47;1.70;;;6.50;78.90;;;;;;5028042;28;20466;-47
2022/02/11 11:27:55;;;;;;;3.17;1.77;;;6.70;77.60;;;;;;5011020;28;20478;-46
2022/02/11 11:30:29;;;;;;;5.60;1.70;;;6.80;76.00;;;;;;5006515;28;21030;-46
2022/02/11 11:33:05;;;;;;;5.40;1.90;;;6.90;74.90;;;;;;5026759;28;20991;-46
2022/02/11 11:35:38;;;;;;;5.60;2.17;;;7.10;75.10;;;;;;5028651;28;20536;-45
2022/02/11 11:38:10;;;;;;;5.70;2.30;;;7.10;74.40;;;;;;5008865;28;20983;-47
2022/02/11 11:40:38;;;;;;;3.70;1.80;;;7.20;71.90;;;;;;5027798;28;20479;-45
2022/02/11 11:43:16;;;;;;;6.23;2.30;;;7.30;72.70;;;;;;5024129;28;20447;-45
2022/02/11 11:45:43;;;;;;;2.90;1.97;;;7.40;72.30;;;;;;5025147;28;20546;-46
2022/02/11 11:48:15;;;;;;;7.47;1.90;;;7.50;71.40;;;;;;5028406;28;20526;-46
2022/02/11 11:50:45;;;;;;;3.47;1.70;;;7.50;70.30;;;;;;5019941;28;20459;-45
2022/02/11 11:53:25;;;;;;;7.60;2.10;;;7.40;70.50;;;;;;5021620;28;20558;-45
2022/02/11 11:55:53;;;;;;;4.33;1.77;;;7.40;71.30;;;;;;5006241;28;20451;-45
2022/02/11 11:58:44;;;;;;;3.53;2.10;;;7.40;71.30;;;;;;5021444;28;20466;-46
2022/02/11 12:01:19;;;;;;;2.97;2.60;;;7.50;70.50;;;;;;5025261;28;20534;-45
2022/02/11 12:04:25;;;;;;;5.83;2.37;;;7.60;71.70;;;;;;5021905;28;21054;-45
2022/02/11 12:06:54;;;;;;;4.10;1.63;;;7.70;69.30;;;;;;4996181;28;20448;-45
2022/02/11 12:09:21;;;;;;;5.33;2.17;;;7.80;68.40;;;;;;5026137;28;20451;-45
2022/02/11 12:11:52;;;;;;;4.33;2.17;;;7.90;68.20;;;;;;5012413;28;20464;-45
2022/02/11 12:14:18;;;;;;;2.90;1.50;;;8.00;68.60;;;;;;5011934;28;20484;-45
2022/02/11 12:16:46;;;;;;;3.70;1.70;;;8.00;68.00;;;;;;5027370;28;20817;-45
2022/02/11 12:19:14;;;;;;;11.73;1.97;;;8.10;66.40;;;;;;5027124;28;20546;-46
2022/02/11 12:21:40;;;;;;;4.27;1.30;;;8.10;66.10;;;;;;5026011;28;20459;-45
2022/02/11 12:29:51;;;;;;;3.53;1.30;;;8.20;64.80;;;;;;5026716;28;20542;-45
2022/02/11 12:32:23;;;;;;;6.33;1.57;;;8.20;65.00;;;;;;5012290;28;20458;-45
2022/02/11 12:34:56;;;;;;;7.30;1.87;;;8.20;64.70;;;;;;5027841;28;20495;-45
2022/02/11 12:37:28;;;;;;;4.10;1.10;;;8.20;64.70;;;;;;5023540;28;20455;-46
2022/02/11 12:40:06;;;;;;;2.67;0.90;;;8.20;64.30;;;;;;5021063;28;20459;-45
2022/02/11 12:42:35;;;;;;;1.50;0.80;;;8.00;65.00;;;;;;5027017;28;20836;-46
2022/02/11 12:45:07;;;;;;;1.50;0.80;;;7.80;67.10;;;;;;5029315;28;21038;-46
2022/02/11 12:47:36;;;;;;;2.43;1.10;;;7.70;67.60;;;;;;5028848;28;20492;-45
2022/02/11 12:50:05;;;;;;;2.30;1.40;;;7.50;68.00;;;;;;5011883;28;20455;-45
2022/02/11 12:52:36;;;;;;;3.83;1.40;;;7.40;68.80;;;;;;5027730;28;20529;-45
2022/02/11 12:55:11;;;;;;;6.20;1.03;;;7.20;70.10;;;;;;5028164;28;20602;-46
2022/02/11 12:57:41;;;;;;;5.43;1.90;;;7.20;69.80;;;;;;5003070;28;20520;-46
2022/02/11 13:00:16;;;;;;;1.30;1.20;;;7.10;70.40;;;;;;5023171;28;21901;-45
2022/02/11 13:02:43;;;;;;;3.00;1.73;;;7.10;71.30;;;;;;5009524;28;20462;-46
2022/02/11 13:05:12;;;;;;;5.93;1.47;;;7.10;71.70;;;;;;5023223;28;20470;-45
2022/02/11 13:07:42;;;;;;;2.80;1.50;;;7.10;71.30;;;;;;4986908;28;20468;-45
2022/02/11 13:10:10;;;;;;;5.97;2.07;;;7.10;71.00;;;;;;5023426;28;20930;-45
2022/02/11 13:12:43;;;;;;;3.93;1.90;;;7.00;70.20;;;;;;5004291;28;20479;-46
2022/02/11 13:15:14;;;;;;;9.90;2.57;;;7.00;69.00;;;;;;5024568;28;20570;-45
2022/02/11 13:17:43;;;;;;;9.73;2.20;;;7.00;69.30;;;;;;5022390;28;20936;-46
2022/02/11 13:20:16;;;;;;;4.57;1.37;;;7.00;69.00;;;;;;5023327;28;20465;-46
2022/02/11 13:22:44;;;;;;;8.93;2.03;;;7.00;69.10;;;;;;5026192;28;20451;-46
2022/02/11 13:25:12;;;;;;;3.67;1.93;;;7.00;69.00;;;;;;5012608;28;20460;-46
2022/02/11 13:27:45;;;;;;;5.17;1.90;;;7.00;70.30;;;;;;5009307;28;20498;-47
2022/02/11 13:30:23;;;;;;;4.27;1.53;;;7.10;69.70;;;;;;5026944;28;20542;-46
2022/02/11 13:32:54;;;;;;;3.17;1.50;;;7.20;69.60;;;;;;5004306;28;20474;-46
2022/02/11 13:35:22;;;;;;;3.40;1.30;;;7.30;69.20;;;;;;5023086;28;20483;-46
2022/02/11 13:37:58;;;;;;;8.93;2.93;;;7.50;69.20;;;;;;5022018;28;20471;-45
2022/02/11 13:40:27;;;;;;;4.13;1.70;;;7.60;68.80;;;;;;5027182;28;20455;-46
2022/02/11 13:43:06;;;;;;;4.43;1.60;;;7.70;68.00;;;;;;5009303;28;20459;-46
2022/02/11 13:45:54;;;;;;;5.73;2.20;;;7.80;67.00;;;;;;5010247;28;20459;-46
2022/02/11 13:48:27;;;;;;;9.73;2.40;;;7.80;66.30;;;;;;5021280;28;20478;-46
2022/02/11 13:51:06;;;;;;;4.17;1.87;;;7.80;65.90;;;;;;5021222;28;20456;-46
2022/02/11 13:53:52;;;;;;;5.80;2.57;;;7.90;66.00;;;;;;5024912;28;20546;-46
2022/02/11 13:56:40;;;;;;;4.10;1.63;;;7.90;65.10;;;;;;5024651;28;20479;-47
2022/02/11 13:59:11;;;;;;;6.63;1.73;;;8.00;64.70;;;;;;5024120;28;20956;-46
2022/02/11 14:01:42;;;;;;;7.43;1.30;;;8.10;65.10;;;;;;5005944;28;22520;-46
2022/02/11 14:04:14;;;;;;;6.90;1.30;;;8.20;67.30;;;;;;5022387;28;20468;-45
2022/02/11 14:06:49;;;;;;;5.47;1.40;;;8.40;66.60;;;;;;5025171;28;20972;-45
2022/02/11 14:09:35;;;;;;;1.93;1.03;;;8.50;67.30;;;;;;5006875;28;20509;-47
2022/02/11 14:12:04;;;;;;;4.33;1.60;;;8.60;64.20;;;;;;5025311;28;20534;-45
2022/02/11 14:14:33;;;;;;;5.20;1.80;;;8.60;65.60;;;;;;5026024;28;20491;-45
2022/02/11 14:17:04;;;;;;;4.57;2.60;;;8.60;65.30;;;;;;5026091;28;20888;-45
2022/02/11 14:19:39;;;;;;;3.50;2.20;;;8.60;65.10;;;;;;5026931;28;20531;-46
2022/02/11 14:22:06;;;;;;;6.47;2.10;;;8.50;64.00;;;;;;5025149;28;20459;-47
2022/02/11 14:24:33;;;;;;;7.50;2.10;;;8.40;62.40;;;;;;5004574;28;20459;-45
2022/02/11 14:26:59;;;;;;;6.00;1.97;;;8.40;62.70;;;;;;5006042;28;20498;-46
2022/02/11 14:29:26;;;;;;;5.70;2.27;;;8.30;64.10;;;;;;5024255;28;20904;-45
2022/02/11 14:31:54;;;;;;;11.73;2.90;;;8.40;64.10;;;;;;5028943;28;20451;-45
2022/02/11 14:34:21;;;;;;;4.10;2.03;;;8.40;62.60;;;;;;5010194;28;20463;-45
2022/02/11 14:36:48;;;;;;;7.77;1.80;;;8.40;63.50;;;;;;5026818;28;20459;-45
2022/02/11 14:39:19;;;;;;;5.47;2.43;;;8.40;64.80;;;;;;5026291;28;20964;-45
2022/02/11 14:41:49;;;;;;;6.67;2.67;;;8.50;63.80;;;;;;5009464;28;20463;-45
2022/02/11 14:44:21;;;;;;;10.23;2.23;;;8.60;62.10;;;;;;5029971;28;20543;-45
2022/02/11 14:46:51;;;;;;;12.17;4.90;;;8.60;62.80;;;;;;5026975;28;20498;-45
2022/02/11 14:49:18;;;;;;;3.47;2.20;;;8.70;60.30;;;;;;5027258;28;20490;-46
2022/02/11 14:51:49;;;;;;;6.63;2.87;;;8.70;60.00;;;;;;4995837;28;21020;-47
2022/02/11 14:54:17;;;;;;;11.63;3.10;;;8.60;59.90;;;;;;5026718;28;20471;-46
2022/02/11 14:56:45;;;;;;;4.03;2.70;;;8.60;59.30;;;;;;5027270;28;21141;-46
2022/02/11 14:59:11;;;;;;;7.83;2.57;;;8.60;59.20;;;;;;5025328;28;20458;-46
2022/02/11 15:01:43;;;;;;;4.07;3.30;;;8.50;60.00;;;;;;5026722;28;20447;-46
2022/02/11 15:04:11;;;;;;;8.37;2.33;;;8.40;58.60;;;;;;5023313;28;20886;-46
2022/02/11 15:06:38;;;;;;;8.67;3.57;;;8.30;58.20;;;;;;5029347;28;20521;-46
2022/02/11 15:09:09;;;;;;;5.83;3.17;;;8.10;58.80;;;;;;5026619;28;20798;-45
2022/02/11 15:11:36;;;;;;;19.80;4.40;;;8.00;60.40;;;;;;5006264;28;20550;-45
2022/02/11 15:14:03;;;;;;;8.17;3.13;;;7.90;62.30;;;;;;5027035;28;20932;-45
2022/02/11 15:16:29;;;;;;;7.50;2.40;;;7.80;62.40;;;;;;5027860;28;20629;-46
2022/02/11 15:18:56;;;;;;;8.80;2.70;;;7.70;61.50;;;;;;5025971;28;20482;-46
2022/02/11 15:21:23;;;;;;;6.50;2.77;;;7.60;62.00;;;;;;5027273;28;20487;-46
2022/02/11 15:23:50;;;;;;;7.73;3.00;;;7.50;61.70;;;;;;5006933;28;20853;-46
2022/02/11 15:26:18;;;;;;;6.60;2.97;;;7.50;61.90;;;;;;5026396;28;20505;-46
2022/02/11 15:28:55;;;;;;;9.27;4.00;;;7.40;62.30;;;;;;5033342;28;20478;-47
2022/02/11 15:31:23;;;;;;;4.30;2.50;;;7.30;63.20;;;;;;5048558;28;20458;-48
2022/02/11 15:33:50;;;;;;;5.60;3.10;;;7.30;64.20;;;;;;5032456;28;20466;-48
2022/02/11 15:36:17;;;;;;;6.63;3.10;;;7.30;64.70;;;;;;5009544;28;20495;-49
2022/02/11 15:38:44;;;;;;;7.10;2.20;;;7.30;64.90;;;;;;5009788;28;20960;-49
2022/02/11 15:41:11;;;;;;;5.03;2.00;;;7.30;65.30;;;;;;5014060;28;20451;-49
2022/02/11 15:43:39;;;;;;;5.97;1.73;;;7.20;65.00;;;;;;5029949;28;20983;-48
2022/02/11 15:46:07;;;;;;;7.37;2.00;;;7.20;65.60;;;;;;5027550;28;20452;-48
2022/02/11 15:48:39;;;;;;;4.37;1.87;;;7.20;65.90;;;;;;5029846;28;20559;-49
2022/02/11 15:51:10;;;;;;;6.73;2.60;;;7.10;66.50;;;;;;5027070;28;20537;-49
2022/02/11 15:53:38;;;;;;;8.40;3.17;;;7.10;66.40;;;;;;5026027;28;20987;-49
2022/02/11 15:56:07;;;;;;;6.00;1.70;;;7.10;66.00;;;;;;5026186;28;20502;-50
2022/02/11 15:58:34;;;;;;;6.53;2.10;;;7.00;66.50;;;;;;5010032;28;20472;-49
2022/02/11 16:01:01;;;;;;;7.60;1.70;;;7.00;66.70;;;;;;5005263;28;20490;-49
2022/02/11 16:03:29;;;;;;;7.40;3.07;;;6.90;67.00;;;;;;5022498;28;20519;-49
2022/02/11 16:06:00;;;;;;;4.90;2.20;;;6.80;67.50;;;;;;5025201;28;21819;-46
2022/02/11 16:08:27;;;;;;;4.63;2.03;;;6.80;67.90;;;;;;5024461;28;20667;-46
2022/02/11 16:10:54;;;;;;;7.63;1.60;;;6.80;68.50;;;;;;5012335;28;20470;-46
2022/02/11 16:13:21;;;;;;;7.60;2.30;;;6.80;67.90;;;;;;5027709;28;20660;-46
2022/02/11 16:15:48;;;;;;;3.27;1.73;;;6.80;68.30;;;;;;5012036;28;20507;-47
2022/02/11 16:18:16;;;;;;;5.03;1.83;;;6.70;67.90;;;;;;5022341;28;20451;-46
2022/02/11 16:20:45;;;;;;;4.60;1.67;;;6.70;68.40;;;;;;5003488;28;20468;-46
2022/02/11 16:23:15;;;;;;;3.70;1.90;;;6.60;68.40;;;;;;5025866;28;21368;-47
2022/02/11 16:25:43;;;;;;;4.40;1.70;;;6.50;68.50;;;;;;5019367;28;20550;-46
2022/02/11 16:28:13;;;;;;;2.30;1.40;;;6.50;69.10;;;;;;5025077;28;20518;-46
2022/02/11 16:30:40;;;;;;;6.83;2.70;;;6.40;69.00;;;;;;5013631;28;20517;-49
2022/02/11 16:33:08;;;;;;;4.80;2.53;;;6.40;69.50;;;;;;5027811;28;20550;-50
2022/02/11 16:35:38;;;;;;;5.63;1.87;;;6.40;69.00;;;;;;5010849;28;20502;-47
2022/02/11 16:38:07;;;;;;;6.10;2.30;;;6.30;69.70;;;;;;5026714;28;20550;-46
2022/02/11 16:40:34;;;;;;;4.30;1.90;;;6.30;69.40;;;;;;5007053;28;20460;-47
2022/02/11 16:43:02;;;;;;;10.87;3.23;;;6.20;70.10;;;;;;5028160;28;21000;-46
2022/02/11 16:45:33;;;;;;;3.53;2.13;;;6.20;69.90;;;;;;5024754;28;20827;-46
2022/02/11 16:48:03;;;;;;;4.00;1.73;;;6.10;69.80;;;;;;5004029;28;20893;-46
2022/02/11 16:50:30;;;;;;;5.53;2.20;;;6.10;70.10;;;;;;5024792;28;20499;-46
2022/02/11 16:52:57;;;;;;;7.10;2.90;;;6.00;70.20;;;;;;5029510;28;20598;-46
2022/02/11 16:55:24;;;;;;;6.20;2.43;;;6.00;70.30;;;;;;5027382;28;21004;-46
2022/02/11 16:57:51;;;;;;;5.20;2.90;;;5.90;68.50;;;;;;5028968;28;20573;-46
2022/02/11 17:00:19;;;;;;;6.93;2.13;;;5.90;68.40;;;;;;5027733;28;20880;-47
2022/02/11 17:02:45;;;;;;;6.00;1.83;;;5.90;68.20;;;;;;5025225;28;20465;-46
2022/02/11 17:05:12;;;;;;;3.57;1.80;;;5.80;68.90;;;;;;5028341;28;20860;-46